Latest Weather Observations for White Cliffs AWS

IDN60801

Issued at 5:42 am EST Monday 6 April 2020 (issued every 10 minutes, with the page automatically refreshed every 10 minutes)

About weather observations | Map of weather stations | Latest weather observations for NSW | Other Formats
Station Details ID: 046129 Name: WHITE CLIFFS AWS Lat: -30.85 Lon: 143.07 Height: 158.0 m
Data from the previous 72 hours. | See also: Recent months at White Cliffs AWS
Date/Time
EST
Temp
°C
App
Temp
°C
Dew
Point
°C
Rel
Hum
%
Delta-T
°C
Wind Press
QNH
hPa
Press
MSL
hPa
Rain since
9am
mm
Dir  Spd
km/h
Gust
km/h
Spd
kts
Gust
kts
06/05:30am 14.0 10.3 10.0 77 2.1 SSW 20 24 11 13 1020.0 1019.5 0.0
06/05:00am 14.2 10.5 10.0 76 2.2 SSW 20 22 11 12 1019.6 1019.1 0.0
06/04:30am 14.1 10.9 10.1 77 2.1 SSW 17 19 9 10 1019.5 1019.0 0.0
06/04:00am 14.1 11.5 10.7 80 1.8 SW 15 15 8 8 1019.2 1018.7 0.0
06/03:30am 14.4 12.5 10.6 78 2.0 SW 11 15 6 8 1019.1 1018.6 0.0
06/03:00am 13.9 14.4 11.6 86 1.2 CALM 0 0 0 0 1019.0 1018.5 0.0
06/02:30am 14.0 13.0 11.0 82 1.6 W 7 7 4 4 1018.8 1018.3 0.0
06/02:00am 14.2 13.4 11.2 82 1.6 W 6 9 3 5 1018.7 1018.2 0.0
06/01:30am 14.5 13.6 11.5 82 1.6 WNW 7 11 4 6 1018.7 1018.2 0.0
06/01:00am 15.0 13.4 11.4 79 1.9 WNW 11 13 6 7 1018.9 1018.4 0.0
06/12:30am 15.4 13.8 11.4 77 2.2 WNW 11 13 6 7 1018.9 1018.4 0.0
06/12:00am 15.6 14.1 11.8 78 2.1 WNW 11 13 6 7 1018.9 1018.4 0.0
 
Date/Time
EST
Temp
°C
App
Temp
°C
Dew
Point
°C
Rel
Hum
%
Delta-T
°C
Wind Press
QNH
hPa
Press
MSL
hPa
Rain since
9am
mm
Dir  Spd
km/h
Gust
km/h
Spd
kts
Gust
kts
05/11:30pm 15.8 13.9 11.8 77 2.2 WNW 13 15 7 8 1019.2 1018.7 0.0
05/11:00pm 15.9 14.5 12.3 79 2.0 NW 11 13 6 7 1019.3 1018.8 0.0
05/10:30pm 16.4 15.4 12.2 76 2.3 NW 9 11 5 6 1019.3 1018.8 0.0
05/10:00pm 16.7 15.4 12.5 76 2.3 NW 11 13 6 7 1019.2 1018.7 0.0
05/09:30pm 17.2 16.1 11.9 71 2.9 NW 9 11 5 6 1018.8 1018.3 0.0
05/09:00pm 17.6 16.1 11.9 69 3.1 WNW 11 11 6 6 1018.9 1018.4 0.0
05/08:30pm 18.1 16.5 11.4 65 3.7 WNW 11 13 6 7 1018.7 1018.2 0.0
05/08:00pm 18.8 17.0 10.9 60 4.3 W 11 11 6 6 1018.5 1018.0 0.0
05/07:30pm 19.4 17.9 10.7 57 4.7 W 9 11 5 6 1018.1 1017.6 0.0
05/07:00pm 20.1 18.9 10.2 53 5.4 WSW 7 9 4 5 1017.8 1017.3 0.0
05/06:30pm 20.7 18.4 9.0 47 6.2 W 11 17 6 9 1017.5 1017.0 0.0
05/06:00pm 21.3 18.0 8.2 43 6.9 WNW 15 17 8 9 1017.1 1016.6 0.0
05/05:30pm 21.7 18.1 8.2 42 7.1 W 17 22 9 12 1016.9 1016.3 0.0
05/05:00pm 21.8 17.7 8.0 41 7.3 WSW 19 24 10 13 1016.8 1016.2 0.0
05/04:30pm 21.9 17.8 7.7 40 7.4 WNW 19 26 10 14 1016.6 1016.0 0.0
05/04:00pm 22.0 18.3 7.8 40 7.4 WNW 17 28 9 15 1016.6 1016.0 0.0
05/03:30pm 21.9 17.6 7.7 40 7.4 WNW 20 28 11 15 1016.6 1016.0 0.0
05/03:00pm 21.6 17.9 8.1 42 7.1 W 17 28 9 15 1016.8 1016.2 0.0
05/02:30pm 21.1 16.6 7.0 40 7.3 WSW 20 32 11 17 1017.1 1016.6 0.0
05/02:00pm 21.2 17.1 7.8 42 7.0 W 19 26 10 14 1017.4 1016.9 0.0
05/01:30pm 21.6 17.4 8.1 42 7.1 W 20 28 11 15 1017.8 1017.3 0.0
05/01:00pm 20.9 18.2 8.9 46 6.4 NW 13 19 7 10 1018.4 1017.9 0.0
05/12:30pm 20.1 16.7 7.8 45 6.4 WSW 15 22 8 12 1018.7 1018.2 0.0
05/12:00pm 19.5 16.2 7.9 47 6.0 WSW 15 20 8 11 1019.1 1018.6 0.0
05/11:30am 19.2 15.9 7.9 48 5.8 SW 15 20 8 11 1019.4 1018.9 0.0
05/11:00am 19.0 16.4 9.5 54 5.0 SW 13 19 7 10 1019.6 1019.1 0.0
05/10:30am 17.7 15.6 8.3 54 4.9 WSW 9 13 5 7 1019.7 1019.2 0.0
05/10:00am 17.1 15.8 9.3 60 4.1 SW 6 11 3 6 1019.8 1019.3 0.0
05/09:30am 16.6 14.6 10.2 66 3.4 SW 11 15 6 8 1019.9 1019.4 0.0
05/09:00am 15.6 13.0 9.3 66 3.3 SW 13 17 7 9 1019.6 1019.1 0.0
05/08:30am 14.7 13.0 9.7 72 2.6 SW 9 17 5 9 1019.3 1018.8 -
05/08:00am 13.8 11.3 9.6 76 2.2 SW 13 15 7 8 1019.0 1018.5 -
05/07:30am 12.8 10.3 9.6 81 1.6 SW 13 15 7 8 1018.5 1018.0 -
05/07:00am 11.9 10.1 9.5 85 1.2 SW 9 11 5 6 1018.1 1017.6 -
05/06:30am 11.8 10.0 9.4 85 1.2 SW 9 11 5 6 1017.9 1017.4 -
05/06:00am 11.9 9.7 9.3 84 1.3 SW 11 13 6 7 1017.5 1017.0 -
05/05:30am 12.3 9.7 9.3 82 1.5 SW 13 15 7 8 1017.1 1016.6 -
05/05:00am 12.6 10.1 9.6 82 1.5 SW 13 13 7 7 1016.8 1016.2 -
05/04:30am 12.6 10.8 9.6 82 1.5 WSW 9 11 5 6 1016.6 1016.0 -
05/04:00am 13.3 11.5 9.5 78 2.0 SW 9 9 5 5 1016.2 1015.7 -
05/03:30am 13.4 11.7 10.0 80 1.8 SW 9 11 5 6 1016.2 1015.7 -
05/03:00am 13.8 - 9.8 77 2.1 - - - - - 1016.2 1015.7 -
05/03:00am 13.7 12.0 9.7 77 2.1 SW 9 11 5 6 1016.2 1015.7 0.0
05/02:30am 14.1 11.2 9.7 75 2.3 SW 15 17 8 9 1016.1 1015.6 0.0
05/02:00am 14.7 11.4 9.5 71 2.7 SW 17 19 9 10 1015.9 1015.4 0.0
05/01:30am 14.9 11.6 9.7 71 2.7 WSW 17 20 9 11 1015.9 1015.4 0.0
05/01:00am 14.0 12.3 11.2 83 1.5 W 11 13 6 7 1015.6 1015.1 0.0
05/12:30am 14.4 12.3 11.0 80 1.8 WNW 13 15 7 8 1015.5 1015.0 0.0
05/12:00am 14.7 12.5 10.9 78 2.0 WNW 13 15 7 8 1015.5 1015.0 0.0
 
Date/Time
EST
Temp
°C
App
Temp
°C
Dew
Point
°C
Rel
Hum
%
Delta-T
°C
Wind Press
QNH
hPa
Press
MSL
hPa
Rain since
9am
mm
Dir  Spd
km/h
Gust
km/h
Spd
kts
Gust
kts
04/11:30pm 15.0 12.9 11.0 77 2.1 NW 13 15 7 8 1015.5 1015.0 0.0
04/11:00pm 15.3 13.2 11.1 76 2.3 WNW 13 17 7 9 1015.4 1014.9 0.0
04/10:30pm 15.3 13.2 11.3 77 2.2 WNW 13 13 7 7 1015.4 1014.9 0.0
04/10:00pm 15.9 13.4 11.1 73 2.6 WNW 15 17 8 9 1015.1 1014.6 0.0
04/09:30pm 16.3 13.8 11.0 71 2.9 WNW 15 17 8 9 1014.8 1014.3 0.0
04/09:00pm 16.6 14.1 10.9 69 3.1 NW 15 19 8 10 1014.5 1014.0 0.0
04/08:30pm 17.0 14.4 10.8 67 3.3 NW 15 17 8 9 1014.1 1013.6 0.0
04/08:00pm 17.7 15.0 10.3 62 4.0 WNW 15 19 8 10 1013.8 1013.3 0.0
04/07:30pm 18.5 15.1 9.3 55 4.9 WNW 17 20 9 11 1013.3 1012.8 0.0
04/07:00pm 19.2 15.3 8.5 50 5.6 WNW 19 24 10 13 1012.9 1012.4 0.0
04/06:30pm 20.1 15.0 7.8 45 6.4 W 24 35 13 19 1012.5 1012.0 0.0
04/06:00pm 20.0 14.0 7.1 43 6.6 W 28 35 15 19 1012.3 1011.8 0.0
04/05:30pm 20.3 14.4 7.3 43 6.7 W 28 32 15 17 1012.1 1011.6 0.0
04/05:00pm 20.6 15.0 8.9 47 6.2 WSW 28 43 15 23 1012.0 1011.5 0.0
04/04:30pm 20.7 14.8 9.0 47 6.2 WSW 30 39 16 21 1012.0 1011.5 0.0
04/04:00pm 20.0 14.4 8.7 48 6.0 WSW 28 39 15 21 1011.8 1011.3 0.0
04/03:30pm 20.2 14.5 8.5 47 6.2 WSW 28 37 15 20 1011.6 1011.1 0.0
04/03:00pm 19.8 15.7 8.8 49 5.8 WSW 20 30 11 16 1011.5 1011.0 0.0
04/02:30pm 19.2 15.3 9.4 53 5.2 WSW 20 32 11 17 1011.8 1011.3 0.0
04/02:00pm 18.7 14.2 8.4 51 5.4 WSW 22 33 12 18 1012.1 1011.6 0.0
04/01:30pm 18.6 13.6 9.4 55 4.9 SW 26 35 14 19 1012.5 1012.0 0.0
04/01:00pm 18.1 13.4 10.5 61 4.1 SW 26 37 14 20 1012.9 1012.4 0.0
04/12:30pm 17.6 11.5 9.8 60 4.1 WSW 32 39 17 21 1012.7 1012.2 0.0
04/12:00pm 17.3 11.7 10.0 62 3.9 WSW 30 35 16 19 1012.8 1012.3 0.0
04/11:30am 17.1 10.9 9.5 61 4.0 WSW 32 39 17 21 1012.8 1012.3 0.0
04/11:00am 17.0 11.8 10.4 65 3.5 WSW 28 46 15 25 1012.7 1012.2 0.0
04/10:30am 16.2 10.3 9.2 63 3.6 WSW 30 37 16 20 1012.2 1011.7 0.0
04/10:00am 16.0 11.0 9.7 66 3.3 WSW 26 33 14 18 1011.8 1011.3 0.0
04/09:30am 15.6 12.0 10.4 71 2.8 W 20 26 11 14 1011.4 1010.8 0.0
04/09:00am 15.0 11.3 9.4 69 2.9 WSW 19 24 10 13 1010.8 1010.2 20.4
04/08:30am 14.4 10.7 9.4 72 2.6 WSW 19 22 10 12 1010.3 1009.7 20.4
04/08:00am 14.0 9.7 9.4 74 2.4 WSW 22 30 12 16 1009.4 1008.9 20.4
04/07:30am 14.1 9.0 9.3 73 2.5 WSW 26 30 14 16 1008.7 1008.2 20.4
04/07:00am 14.3 10.4 9.5 73 2.5 WSW 20 26 11 14 1008.5 1008.0 20.4
04/06:30am 14.8 9.1 9.8 72 2.6 WSW 30 37 16 20 1007.7 1007.2 20.4
04/06:00am 15.1 9.2 10.3 73 2.5 SW 32 39 17 21 1007.1 1006.6 20.4
04/05:30am 15.5 11.0 11.3 76 2.3 SW 26 32 14 17 1006.6 1006.1 20.4
04/05:00am 15.8 10.2 11.6 76 2.3 SW 32 41 17 22 1006.0 1005.5 20.4
04/04:30am 16.4 10.9 11.8 74 2.5 SW 32 37 17 20 1005.7 1005.1 20.4
04/04:00am 17.0 13.2 12.5 75 2.5 WSW 24 30 13 16 1005.5 1004.9 20.4
04/03:30am 17.3 14.0 12.8 75 2.5 WSW 22 28 12 15 1005.2 1004.6 20.4
04/03:00am 17.8 13.4 12.9 73 2.8 WSW 28 35 15 19 1004.9 1004.3 20.4
04/02:30am 18.4 12.9 12.6 69 3.3 SW 33 44 18 24 1004.6 1004.0 20.4
04/02:00am 18.8 13.2 13.2 70 3.2 SW 35 44 19 24 1004.5 1003.9 20.4
04/01:37am 20.2 13.1 13.4 65 3.9 WSW 43 63 23 34 1004.0 1003.4 20.2
04/01:30am 21.0 15.7 16.2 74 2.9 WSW 39 50 21 27 1003.6 1003.0 20.2
04/01:15am 20.9 18.7 17.9 83 1.9 WNW 26 43 14 23 1003.0 1002.5 20.2
04/01:00am 20.5 20.0 19.0 91 1.0 NNW 20 24 11 13 1002.3 1001.8 20.2
04/12:30am 20.4 19.7 18.7 90 1.1 NNW 20 26 11 14 1002.1 1001.6 20.2
04/12:00am 20.5 19.5 18.8 90 1.1 NNW 22 26 12 14 1002.0 1001.5 20.2
 
Date/Time
EST
Temp
°C
App
Temp
°C
Dew
Point
°C
Rel
Hum
%
Delta-T
°C
Wind Press
QNH
hPa
Press
MSL
hPa
Rain since
9am
mm
Dir  Spd
km/h
Gust
km/h
Spd
kts
Gust
kts
03/11:30pm 20.3 19.5 19.3 94 0.6 NNW 22 28 12 15 1002.0 1001.5 20.2
03/11:00pm 20.6 20.2 19.3 92 0.8 NNW 20 26 11 14 1002.1 1001.6 20.2
03/10:30pm 20.6 22.3 19.4 93 0.8 NW 9 13 5 7 1001.8 1001.3 19.0
03/10:00pm 20.1 23.9 20.1 100 0.0 CALM 0 0 0 0 1002.3 1001.8 18.6
03/09:30pm 19.8 22.0 19.6 99 0.1 ESE 7 9 4 5 1002.2 1001.7 16.8
03/09:00pm 19.8 22.1 19.5 98 0.2 E 6 9 3 5 1002.1 1001.6 16.0
03/08:30pm 19.9 21.5 19.1 95 0.5 SE 9 11 5 6 1001.4 1000.9 13.8
03/08:00pm 19.8 21.5 18.5 92 0.8 NNW 7 11 4 6 1001.9 1001.4 13.8
03/07:30pm 20.5 22.5 20.0 97 0.3 WSW 9 20 5 11 1001.5 1001.0 12.8
03/07:00pm 20.6 22.0 20.3 98 0.2 NE 13 15 7 8 1001.2 1000.7 12.0
03/06:30pm 21.5 22.8 20.8 96 0.5 NNW 15 20 8 11 1001.4 1000.9 9.8
03/06:00pm 21.1 20.4 19.6 91 1.0 SSW 22 37 12 20 1001.6 1001.1 7.0
03/05:30pm 21.8 22.1 19.5 87 1.5 SSW 17 30 9 16 1001.3 1000.8 2.2
03/05:00pm 21.7 21.4 19.1 85 1.7 S 19 24 10 13 1001.5 1001.0 2.2
03/04:30pm 22.1 21.4 18.7 81 2.2 SW 20 28 11 15 1001.6 1001.1 2.2
03/04:00pm 25.3 26.7 20.3 74 3.3 NNW 13 17 7 9 1001.8 1001.3 2.2
03/03:30pm 25.1 24.9 19.7 72 3.5 NNW 20 26 11 14 1002.5 1002.0 2.2
03/03:00pm 25.2 25.2 20.2 74 3.3 NNW 20 28 11 15 1002.9 1002.4 2.2
03/02:30pm 25.0 24.1 19.8 73 3.4 NNW 24 32 13 17 1003.6 1003.0 2.2
03/02:00pm 25.0 24.8 19.8 73 3.4 NNW 20 28 11 15 1004.1 1003.5 2.2
03/01:30pm 24.3 24.0 18.2 68 3.9 N 17 24 9 13 1004.4 1003.8 2.2
03/01:00pm 23.9 22.8 17.4 67 4.1 N 19 20 10 11 1005.0 1004.4 2.2
03/12:30pm 22.7 21.6 17.4 72 3.3 N 19 20 10 11 1005.4 1004.8 2.2
03/12:00pm 20.6 20.3 17.4 82 2.0 N 15 20 8 11 1005.6 1005.0 2.2
03/11:30am 18.9 17.6 16.7 87 1.3 NNW 19 24 10 13 1006.3 1005.8 2.2
03/11:00am 20.2 19.0 17.0 82 2.0 NNW 19 28 10 15 1007.0 1006.5 0.4
03/10:30am 20.5 20.3 18.6 89 1.2 NNW 17 24 9 13 1006.9 1006.4 0.0
03/10:00am 20.5 21.3 19.0 91 1.0 N 13 19 7 10 1006.6 1006.1 0.0
03/09:30am 20.0 21.9 19.0 94 0.6 N 7 9 4 5 1007.2 1006.7 0.0
03/09:00am 19.4 19.7 18.7 96 0.4 N 15 20 8 11 1007.3 1006.8 24.6
03/08:30am 19.0 18.6 19.0 100 0.0 N 19 24 10 13 1007.2 1006.7 24.6
03/08:00am 19.2 20.5 19.2 100 0.0 NNE 11 15 6 8 1006.7 1006.2 24.4
03/07:30am 19.2 20.5 19.2 100 0.0 N 11 13 6 7 1006.8 1006.3 24.0
03/07:00am 19.3 21.4 19.3 100 0.0 NNW 7 11 4 6 1006.8 1006.3 22.8

Other formats

Comma delimited format used in spreadsheet applications
http://www.bom.gov.au/fwo/IDN60801/IDN60801.95699.axf

JavaScript Object Notation format (JSON) in row-major order
http://www.bom.gov.au/fwo/IDN60801/IDN60801.95699.json

Data quality

Most of these data are generated automatically and are frequently updated. Quality checks on data are not normally performed. It is possible for incorrect values to appear. Refer to information at About Latest Weather Observations and please check the disclaimer before using these data.